sensor_id;sensor_type;location;lat;lon;timestamp;pressure;altitude;pressure_sealevel;temperature;humidity
30875;BME280;17581;43.222;27.924;2022-12-18T00:03:46;101379.91;;;14.09;65.56
30875;BME280;17581;43.222;27.924;2022-12-18T00:06:12;101370.06;;;14.08;65.85
30875;BME280;17581;43.222;27.924;2022-12-18T00:08:39;101363.50;;;13.90;65.84
30875;BME280;17581;43.222;27.924;2022-12-18T00:11:06;101381.41;;;13.91;65.99
30875;BME280;17581;43.222;27.924;2022-12-18T00:13:33;101383.03;;;13.94;65.85
30875;BME280;17581;43.222;27.924;2022-12-18T00:16:07;101388.03;;;13.98;65.46
30875;BME280;17581;43.222;27.924;2022-12-18T00:18:34;101385.22;;;14.00;65.61
30875;BME280;17581;43.222;27.924;2022-12-18T00:21:01;101369.88;;;14.00;65.44
30875;BME280;17581;43.222;27.924;2022-12-18T00:23:28;101389.25;;;14.05;65.30
30875;BME280;17581;43.222;27.924;2022-12-18T00:25:53;101377.38;;;13.97;65.46
30875;BME280;17581;43.222;27.924;2022-12-18T00:28:19;101358.84;;;13.81;65.67
30875;BME280;17581;43.222;27.924;2022-12-18T00:30:44;101393.19;;;14.01;65.39
30875;BME280;17581;43.222;27.924;2022-12-18T00:33:10;101398.34;;;14.04;65.04
30875;BME280;17581;43.222;27.924;2022-12-18T00:35:35;101380.09;;;13.86;65.02
30875;BME280;17581;43.222;27.924;2022-12-18T00:38:01;101374.63;;;13.65;65.43
30875;BME280;17581;43.222;27.924;2022-12-18T00:40:26;101421.78;;;13.83;65.38
30875;BME280;17581;43.222;27.924;2022-12-18T00:42:52;101428.53;;;13.78;65.76
30875;BME280;17581;43.222;27.924;2022-12-18T00:45:29;101417.13;;;13.74;65.89
30875;BME280;17581;43.222;27.924;2022-12-18T00:47:55;101418.44;;;13.80;65.25
30875;BME280;17581;43.222;27.924;2022-12-18T00:50:22;101417.47;;;13.81;65.32
30875;BME280;17581;43.222;27.924;2022-12-18T00:52:47;101417.84;;;13.87;64.94
30875;BME280;17581;43.222;27.924;2022-12-18T00:55:13;101415.88;;;13.67;65.28
30875;BME280;17581;43.222;27.924;2022-12-18T00:57:39;101418.25;;;13.60;65.37
30875;BME280;17581;43.222;27.924;2022-12-18T01:00:07;101425.25;;;13.63;65.28
30875;BME280;17581;43.222;27.924;2022-12-18T01:02:33;101399.94;;;13.53;65.12
30875;BME280;17581;43.222;27.924;2022-12-18T01:04:59;101437.78;;;13.64;65.22
30875;BME280;17581;43.222;27.924;2022-12-18T01:07:24;101437.28;;;13.70;65.30
30875;BME280;17581;43.222;27.924;2022-12-18T01:09:50;101431.59;;;13.73;65.42
30875;BME280;17581;43.222;27.924;2022-12-18T01:12:15;101424.75;;;13.69;64.96
30875;BME280;17581;43.222;27.924;2022-12-18T01:14:41;101438.03;;;13.72;64.97
30875;BME280;17581;43.222;27.924;2022-12-18T01:17:06;101438.03;;;13.72;64.90
30875;BME280;17581;43.222;27.924;2022-12-18T01:19:32;101455.44;;;13.79;64.79
30875;BME280;17581;43.222;27.924;2022-12-18T01:21:58;101456.19;;;13.81;64.82
30875;BME280;17581;43.222;27.924;2022-12-18T01:24:23;101412.34;;;13.55;64.58
30875;BME280;17581;43.222;27.924;2022-12-18T01:26:49;101472.91;;;13.97;64.25
30875;BME280;17581;43.222;27.924;2022-12-18T01:29:14;101468.56;;;13.95;63.91
30875;BME280;17581;43.222;27.924;2022-12-18T01:31:40;101453.72;;;13.89;63.64
30875;BME280;17581;43.222;27.924;2022-12-18T01:34:05;101453.34;;;13.94;63.84
30875;BME280;17581;43.222;27.924;2022-12-18T01:36:36;101438.09;;;13.93;63.81
30875;BME280;17581;43.222;27.924;2022-12-18T01:39:07;101457.25;;;14.01;63.48
30875;BME280;17581;43.222;27.924;2022-12-18T01:41:34;101454.44;;;14.02;63.20
30875;BME280;17581;43.222;27.924;2022-12-18T01:44:54;101464.91;;;13.96;63.07
30875;BME280;17581;43.222;27.924;2022-12-18T01:47:43;101466.50;;;13.87;63.22
30875;BME280;17581;43.222;27.924;2022-12-18T01:52:56;101474.47;;;13.89;63.20
30875;BME280;17581;43.222;27.924;2022-12-18T01:55:25;101486.41;;;13.97;63.03
30875;BME280;17581;43.222;27.924;2022-12-18T01:57:54;101493.66;;;13.97;62.73
30875;BME280;17581;43.222;27.924;2022-12-18T02:00:22;101488.38;;;13.95;62.78
30875;BME280;17581;43.222;27.924;2022-12-18T02:02:47;101488.88;;;13.89;62.54
30875;BME280;17581;43.222;27.924;2022-12-18T02:05:40;101483.34;;;13.91;62.64
30875;BME280;17581;43.222;27.924;2022-12-18T02:08:27;101480.66;;;13.91;62.70
30875;BME280;17581;43.222;27.924;2022-12-18T02:19:00;101484.69;;;13.85;62.50
30875;BME280;17581;43.222;27.924;2022-12-18T02:21:54;101490.97;;;13.86;62.64
30875;BME280;17581;43.222;27.924;2022-12-18T02:27:05;101488.03;;;13.78;62.86
30875;BME280;17581;43.222;27.924;2022-12-18T02:29:42;101422.09;;;13.36;62.90
30875;BME280;17581;43.222;27.924;2022-12-18T02:32:14;101483.72;;;13.75;63.35
30875;BME280;17581;43.222;27.924;2022-12-18T02:34:43;101493.56;;;13.65;62.94
30875;BME280;17581;43.222;27.924;2022-12-18T02:37:12;101502.91;;;13.72;62.88
30875;BME280;17581;43.222;27.924;2022-12-18T02:39:42;101494.69;;;13.62;62.79
30875;BME280;17581;43.222;27.924;2022-12-18T02:42:08;101517.53;;;13.58;62.82
30875;BME280;17581;43.222;27.924;2022-12-18T02:44:35;101515.69;;;13.48;62.83
30875;BME280;17581;43.222;27.924;2022-12-18T02:47:10;101529.44;;;13.45;63.19
30875;BME280;17581;43.222;27.924;2022-12-18T02:55:07;101560.88;;;13.46;63.03
30875;BME280;17581;43.222;27.924;2022-12-18T02:57:53;101554.50;;;13.47;63.19
30875;BME280;17581;43.222;27.924;2022-12-18T03:00:24;101556.34;;;13.46;63.16
30875;BME280;17581;43.222;27.924;2022-12-18T03:03:06;101549.66;;;13.28;63.89
30875;BME280;17581;43.222;27.924;2022-12-18T03:05:47;101531.97;;;13.24;63.78
30875;BME280;17581;43.222;27.924;2022-12-18T03:08:18;101517.72;;;13.11;63.74
30875;BME280;17581;43.222;27.924;2022-12-18T03:11:08;101559.88;;;13.36;63.91
30875;BME280;17581;43.222;27.924;2022-12-18T03:13:45;101560.13;;;13.44;63.57
30875;BME280;17581;43.222;27.924;2022-12-18T03:16:15;101542.44;;;13.29;63.91
30875;BME280;17581;43.222;27.924;2022-12-18T03:18:48;101555.22;;;13.27;63.97
30875;BME280;17581;43.222;27.924;2022-12-18T03:21:17;101548.19;;;13.24;64.15
30875;BME280;17581;43.222;27.924;2022-12-18T03:23:48;101552.69;;;13.13;64.48
30875;BME280;17581;43.222;27.924;2022-12-18T03:26:17;101552.81;;;13.11;64.53
30875;BME280;17581;43.222;27.924;2022-12-18T03:28:57;101548.28;;;13.12;64.72
30875;BME280;17581;43.222;27.924;2022-12-18T03:31:25;101551.00;;;13.12;65.08
30875;BME280;17581;43.222;27.924;2022-12-18T03:36:18;101551.00;;;13.23;64.91
30875;BME280;17581;43.222;27.924;2022-12-18T03:38:43;101552.50;;;13.27;64.33
30875;BME280;17581;43.222;27.924;2022-12-18T03:44:11;101558.16;;;13.24;64.49
30875;BME280;17581;43.222;27.924;2022-12-18T03:46:52;101564.66;;;13.32;64.49
30875;BME280;17581;43.222;27.924;2022-12-18T03:51:59;101575.34;;;13.34;62.67
30875;BME280;17581;43.222;27.924;2022-12-18T03:54:26;101566.38;;;13.33;61.96
30875;BME280;17581;43.222;27.924;2022-12-18T03:56:59;101543.88;;;13.11;61.71
30875;BME280;17581;43.222;27.924;2022-12-18T03:59:26;101587.16;;;13.33;61.72
30875;BME280;17581;43.222;27.924;2022-12-18T04:01:52;101596.94;;;13.23;61.33
30875;BME280;17581;43.222;27.924;2022-12-18T04:04:21;101615.88;;;13.34;61.46
30875;BME280;17581;43.222;27.924;2022-12-18T04:06:47;101619.09;;;13.39;61.10
30875;BME280;17581;43.222;27.924;2022-12-18T04:09:14;101638.00;;;13.39;61.04
30875;BME280;17581;43.222;27.924;2022-12-18T04:11:41;101642.31;;;13.41;60.09
30875;BME280;17581;43.222;27.924;2022-12-18T04:14:09;101656.81;;;13.40;60.50
30875;BME280;17581;43.222;27.924;2022-12-18T04:16:34;101669.34;;;13.41;60.09
30875;BME280;17581;43.222;27.924;2022-12-18T04:19:00;101668.16;;;13.22;60.09
30875;BME280;17581;43.222;27.924;2022-12-18T04:21:25;101639.06;;;13.01;59.95
30875;BME280;17581;43.222;27.924;2022-12-18T04:23:51;101677.63;;;13.27;60.05
30875;BME280;17581;43.222;27.924;2022-12-18T04:26:16;101679.31;;;13.17;60.33
30875;BME280;17581;43.222;27.924;2022-12-18T04:28:41;101681.16;;;13.17;60.50
30875;BME280;17581;43.222;27.924;2022-12-18T04:31:07;101696.91;;;13.23;59.60
30875;BME280;17581;43.222;27.924;2022-12-18T04:33:33;101697.59;;;13.14;59.23
30875;BME280;17581;43.222;27.924;2022-12-18T04:35:58;101709.34;;;13.13;59.24
30875;BME280;17581;43.222;27.924;2022-12-18T04:38:24;101704.38;;;13.06;58.51
30875;BME280;17581;43.222;27.924;2022-12-18T04:40:49;101710.84;;;12.93;58.88
30875;BME280;17581;43.222;27.924;2022-12-18T04:43:15;101720.00;;;12.90;58.93
30875;BME280;17581;43.222;27.924;2022-12-18T04:45:40;101720.13;;;12.89;58.33
30875;BME280;17581;43.222;27.924;2022-12-18T04:48:05;101739.50;;;12.70;58.28
30875;BME280;17581;43.222;27.924;2022-12-18T04:50:31;101743.81;;;12.60;57.73
30875;BME280;17581;43.222;27.924;2022-12-18T04:52:57;101732.97;;;12.49;57.90
30875;BME280;17581;43.222;27.924;2022-12-18T04:55:26;101726.47;;;12.26;57.93
30875;BME280;17581;43.222;27.924;2022-12-18T04:57:52;101730.28;;;12.24;58.20
30875;BME280;17581;43.222;27.924;2022-12-18T05:00:17;101738.50;;;12.22;58.41
30875;BME280;17581;43.222;27.924;2022-12-18T05:02:43;101749.34;;;12.08;58.75
30875;BME280;17581;43.222;27.924;2022-12-18T05:05:08;101755.97;;;12.04;58.93
30875;BME280;17581;43.222;27.924;2022-12-18T05:07:34;101765.97;;;12.02;59.19
30875;BME280;17581;43.222;27.924;2022-12-18T05:09:59;101765.34;;;11.98;59.15
30875;BME280;17581;43.222;27.924;2022-12-18T05:12:25;101775.56;;;11.93;58.66
30875;BME280;17581;43.222;27.924;2022-12-18T05:14:50;101737.75;;;11.68;60.27
30875;BME280;17581;43.222;27.924;2022-12-18T05:17:16;101781.16;;;11.90;59.93
30875;BME280;17581;43.222;27.924;2022-12-18T05:19:41;101799.38;;;11.87;60.88
30875;BME280;17581;43.222;27.924;2022-12-18T05:22:07;101805.50;;;11.76;59.97
30875;BME280;17581;43.222;27.924;2022-12-18T05:24:32;101763.09;;;11.39;60.63
30875;BME280;17581;43.222;27.924;2022-12-18T05:26:58;101806.94;;;11.41;60.39
30875;BME280;17581;43.222;27.924;2022-12-18T05:29:23;101752.28;;;11.00;60.69
30875;BME280;17581;43.222;27.924;2022-12-18T05:31:49;101822.81;;;11.19;60.74
30875;BME280;17581;43.222;27.924;2022-12-18T05:34:14;101826.25;;;11.21;61.45
30875;BME280;17581;43.222;27.924;2022-12-18T05:36:39;101826.34;;;11.19;61.42
30875;BME280;17581;43.222;27.924;2022-12-18T05:39:05;101836.16;;;11.20;61.52
30875;BME280;17581;43.222;27.924;2022-12-18T05:41:31;101834.81;;;11.13;60.96
30875;BME280;17581;43.222;27.924;2022-12-18T05:43:56;101836.19;;;10.92;61.03
30875;BME280;17581;43.222;27.924;2022-12-18T05:46:23;101830.72;;;10.93;60.83
30875;BME280;17581;43.222;27.924;2022-12-18T05:48:49;101812.38;;;10.72;60.28
30875;BME280;17581;43.222;27.924;2022-12-18T05:51:17;101851.50;;;10.91;60.07
30875;BME280;17581;43.222;27.924;2022-12-18T05:53:43;101827.97;;;10.67;60.30
30875;BME280;17581;43.222;27.924;2022-12-18T05:56:18;101837.84;;;10.52;59.91
30875;BME280;17581;43.222;27.924;2022-12-18T05:58:44;101869.09;;;10.55;59.66
30875;BME280;17581;43.222;27.924;2022-12-18T06:01:13;101904.53;;;10.61;60.01
30875;BME280;17581;43.222;27.924;2022-12-18T06:03:40;101905.50;;;10.60;60.12
30875;BME280;17581;43.222;27.924;2022-12-18T06:06:17;101911.75;;;10.61;60.11
30875;BME280;17581;43.222;27.924;2022-12-18T06:08:43;101914.53;;;10.59;60.14
30875;BME280;17581;43.222;27.924;2022-12-18T06:11:08;101896.06;;;10.39;60.82
30875;BME280;17581;43.222;27.924;2022-12-18T06:13:33;101915.38;;;10.60;60.48
30875;BME280;17581;43.222;27.924;2022-12-18T06:16:02;101914.88;;;10.53;60.12
30875;BME280;17581;43.222;27.924;2022-12-18T06:18:28;101932.59;;;10.57;60.17
30875;BME280;17581;43.222;27.924;2022-12-18T06:20:56;101930.03;;;10.40;60.23
30875;BME280;17581;43.222;27.924;2022-12-18T06:23:22;101990.97;;;10.55;59.89
30875;BME280;17581;43.222;27.924;2022-12-18T06:25:48;102001.34;;;10.47;59.69
30875;BME280;17581;43.222;27.924;2022-12-18T06:28:13;101957.00;;;10.09;60.64
30875;BME280;17581;43.222;27.924;2022-12-18T06:30:38;101962.03;;;10.15;60.83
30875;BME280;17581;43.222;27.924;2022-12-18T06:33:04;102009.63;;;10.28;60.85
30875;BME280;17581;43.222;27.924;2022-12-18T06:35:29;102023.59;;;10.19;61.60
30875;BME280;17581;43.222;27.924;2022-12-18T06:37:56;102020.81;;;10.05;62.01
30875;BME280;17581;43.222;27.924;2022-12-18T06:40:22;102038.75;;;10.05;62.22
30875;BME280;17581;43.222;27.924;2022-12-18T06:42:47;102007.09;;;9.94;62.77
30875;BME280;17581;43.222;27.924;2022-12-18T06:45:16;102046.81;;;10.05;62.57
30875;BME280;17581;43.222;27.924;2022-12-18T06:47:41;102047.16;;;9.99;62.84
30875;BME280;17581;43.222;27.924;2022-12-18T06:50:07;102053.81;;;9.92;62.81
30875;BME280;17581;43.222;27.924;2022-12-18T06:52:33;102010.63;;;9.63;63.15
30875;BME280;17581;43.222;27.924;2022-12-18T06:54:59;102049.78;;;9.84;63.28
30875;BME280;17581;43.222;27.924;2022-12-18T06:57:24;101984.34;;;9.37;63.50
30875;BME280;17581;43.222;27.924;2022-12-18T06:59:50;102058.47;;;9.72;63.56
30875;BME280;17581;43.222;27.924;2022-12-18T07:02:15;102048.06;;;9.66;63.55
30875;BME280;17581;43.222;27.924;2022-12-18T07:04:40;102006.44;;;9.42;63.48
30875;BME280;17581;43.222;27.924;2022-12-18T07:07:06;102056.84;;;9.70;63.63
30875;BME280;17581;43.222;27.924;2022-12-18T07:09:31;102068.13;;;9.76;63.54
30875;BME280;17581;43.222;27.924;2022-12-18T07:11:57;102060.66;;;9.81;63.11
30875;BME280;17581;43.222;27.924;2022-12-18T07:14:22;102065.72;;;9.88;63.33
30875;BME280;17581;43.222;27.924;2022-12-18T07:16:48;102055.47;;;9.94;63.36
30875;BME280;17581;43.222;27.924;2022-12-18T07:19:13;102059.13;;;9.93;62.94
30875;BME280;17581;43.222;27.924;2022-12-18T07:21:38;102079.06;;;10.05;63.04
30875;BME280;17581;43.222;27.924;2022-12-18T07:24:04;102083.63;;;10.20;63.03
30875;BME280;17581;43.222;27.924;2022-12-18T07:26:30;102084.75;;;10.16;62.29
30875;BME280;17581;43.222;27.924;2022-12-18T07:28:56;102102.34;;;10.37;62.28
30875;BME280;17581;43.222;27.924;2022-12-18T07:31:23;102082.50;;;10.24;61.80
30875;BME280;17581;43.222;27.924;2022-12-18T07:33:49;102089.53;;;10.42;61.97
30875;BME280;17581;43.222;27.924;2022-12-18T07:36:15;102095.81;;;10.57;61.76
30875;BME280;17581;43.222;27.924;2022-12-18T07:38:40;102110.78;;;10.76;61.29
30875;BME280;17581;43.222;27.924;2022-12-18T07:41:11;102100.22;;;10.73;61.02
30875;BME280;17581;43.222;27.924;2022-12-18T07:43:38;102092.13;;;10.73;60.82
30875;BME280;17581;43.222;27.924;2022-12-18T07:46:04;102106.03;;;10.81;60.24
30875;BME280;17581;43.222;27.924;2022-12-18T07:48:30;102113.56;;;10.90;60.27
30875;BME280;17581;43.222;27.924;2022-12-18T07:50:59;102082.56;;;10.83;59.86
30875;BME280;17581;43.222;27.924;2022-12-18T07:53:25;102098.31;;;10.75;59.98
30875;BME280;17581;43.222;27.924;2022-12-18T07:56:02;102121.63;;;10.90;59.92
30875;BME280;17581;43.222;27.924;2022-12-18T07:58:28;102120.25;;;10.83;59.88
30875;BME280;17581;43.222;27.924;2022-12-18T08:00:54;102122.03;;;10.69;60.09
30875;BME280;17581;43.222;27.924;2022-12-18T08:03:26;102125.22;;;10.75;60.45
30875;BME280;17581;43.222;27.924;2022-12-18T08:05:52;102130.97;;;10.69;60.92
30875;BME280;17581;43.222;27.924;2022-12-18T08:08:17;102122.97;;;10.68;60.76
30875;BME280;17581;43.222;27.924;2022-12-18T08:10:43;102133.38;;;10.74;61.30
30875;BME280;17581;43.222;27.924;2022-12-18T08:13:08;102137.88;;;10.73;60.81
30875;BME280;17581;43.222;27.924;2022-12-18T08:15:33;102144.06;;;10.75;60.69
30875;BME280;17581;43.222;27.924;2022-12-18T08:17:59;102148.81;;;10.70;60.92
30875;BME280;17581;43.222;27.924;2022-12-18T08:20:24;102142.09;;;10.63;61.02
30875;BME280;17581;43.222;27.924;2022-12-18T08:22:50;102146.41;;;10.66;61.25
30875;BME280;17581;43.222;27.924;2022-12-18T08:25:15;102137.81;;;10.59;61.81
30875;BME280;17581;43.222;27.924;2022-12-18T08:27:41;102133.72;;;10.68;61.62
30875;BME280;17581;43.222;27.924;2022-12-18T08:30:07;102130.97;;;10.69;60.94
30875;BME280;17581;43.222;27.924;2022-12-18T08:32:32;102137.13;;;10.71;60.62
30875;BME280;17581;43.222;27.924;2022-12-18T08:34:58;102146.59;;;10.78;60.87
30875;BME280;17581;43.222;27.924;2022-12-18T08:37:24;102144.94;;;10.76;60.64
30875;BME280;17581;43.222;27.924;2022-12-18T08:39:49;102118.28;;;10.71;60.26
30875;BME280;17581;43.222;27.924;2022-12-18T08:42:15;102139.97;;;10.84;60.58
30875;BME280;17581;43.222;27.924;2022-12-18T08:44:59;102099.03;;;10.63;61.09
30875;BME280;17581;43.222;27.924;2022-12-18T08:47:24;102096.34;;;10.63;60.76
30875;BME280;17581;43.222;27.924;2022-12-18T08:49:51;102141.53;;;10.88;60.32
30875;BME280;17581;43.222;27.924;2022-12-18T08:52:16;102121.75;;;10.73;60.47
30875;BME280;17581;43.222;27.924;2022-12-18T08:54:42;102127.66;;;10.64;60.63
30875;BME280;17581;43.222;27.924;2022-12-18T08:57:07;102139.28;;;10.80;60.64
30875;BME280;17581;43.222;27.924;2022-12-18T08:59:32;102139.56;;;10.76;60.17
30875;BME280;17581;43.222;27.924;2022-12-18T09:01:58;102131.16;;;10.66;60.94
30875;BME280;17581;43.222;27.924;2022-12-18T09:04:23;102147.13;;;10.54;61.79
30875;BME280;17581;43.222;27.924;2022-12-18T09:06:49;102141.22;;;10.63;61.55
30875;BME280;17581;43.222;27.924;2022-12-18T09:09:14;102129.06;;;10.56;61.36
30875;BME280;17581;43.222;27.924;2022-12-18T09:11:40;102130.63;;;10.60;60.70
30875;BME280;17581;43.222;27.924;2022-12-18T09:14:05;102131.50;;;10.60;61.52
30875;BME280;17581;43.222;27.924;2022-12-18T09:16:32;102123.06;;;10.66;61.56
30875;BME280;17581;43.222;27.924;2022-12-18T09:19:00;102116.19;;;10.76;61.60
30875;BME280;17581;43.222;27.924;2022-12-18T09:21:29;102127.28;;;10.86;60.71
30875;BME280;17581;43.222;27.924;2022-12-18T09:23:55;102116.88;;;10.80;60.97
30875;BME280;17581;43.222;27.924;2022-12-18T09:26:22;102124.91;;;10.96;61.23
30875;BME280;17581;43.222;27.924;2022-12-18T09:28:48;102129.53;;;10.93;61.33
30875;BME280;17581;43.222;27.924;2022-12-18T09:31:13;102091.19;;;10.74;60.44
30875;BME280;17581;43.222;27.924;2022-12-18T09:33:39;102128.81;;;11.06;60.63
30875;BME280;17581;43.222;27.924;2022-12-18T09:36:07;102115.13;;;10.95;60.35
30875;BME280;17581;43.222;27.924;2022-12-18T09:38:33;102132.88;;;11.13;60.40
30875;BME280;17581;43.222;27.924;2022-12-18T09:41:03;102122.19;;;11.11;60.48
30875;BME280;17581;43.222;27.924;2022-12-18T09:43:36;102128.63;;;11.09;60.39
30875;BME280;17581;43.222;27.924;2022-12-18T09:46:10;102132.59;;;11.17;59.95
30875;BME280;17581;43.222;27.924;2022-12-18T09:48:42;102129.19;;;11.14;60.33
30875;BME280;17581;43.222;27.924;2022-12-18T09:53:41;102123.59;;;11.03;60.67
30875;BME280;17581;43.222;27.924;2022-12-18T09:56:12;102113.72;;;11.03;60.10
30875;BME280;17581;43.222;27.924;2022-12-18T09:58:46;102119.09;;;11.03;60.29
30875;BME280;17581;43.222;27.924;2022-12-18T10:01:16;102123.59;;;11.03;60.48
30875;BME280;17581;43.222;27.924;2022-12-18T10:03:43;102118.34;;;11.15;60.57
30875;BME280;17581;43.222;27.924;2022-12-18T10:06:42;102125.28;;;11.19;60.73
30875;BME280;17581;43.222;27.924;2022-12-18T10:17:44;102117.31;;;11.18;59.99
30875;BME280;17581;43.222;27.924;2022-12-18T10:25:57;102088.81;;;11.14;60.30
30875;BME280;17581;43.222;27.924;2022-12-18T10:28:26;102126.97;;;11.36;59.99
30875;BME280;17581;43.222;27.924;2022-12-18T10:30:52;102123.22;;;11.38;59.52
30875;BME280;17581;43.222;27.924;2022-12-18T10:33:20;102136.19;;;11.32;59.30
30875;BME280;17581;43.222;27.924;2022-12-18T10:35:47;102120.25;;;11.13;59.94
30875;BME280;17581;43.222;27.924;2022-12-18T10:40:49;102135.41;;;11.30;60.06
30875;BME280;17581;43.222;27.924;2022-12-18T10:43:19;102132.91;;;11.27;60.15
30875;BME280;17581;43.222;27.924;2022-12-18T10:54:04;102155.25;;;11.13;60.55
30875;BME280;17581;43.222;27.924;2022-12-18T10:56:32;102130.84;;;10.86;60.55
30875;BME280;17581;43.222;27.924;2022-12-18T10:59:01;102153.63;;;11.11;60.72
30875;BME280;17581;43.222;27.924;2022-12-18T11:01:27;102136.00;;;11.05;60.77
30875;BME280;17581;43.222;27.924;2022-12-18T11:06:25;102141.94;;;11.26;59.59
30875;BME280;17581;43.222;27.924;2022-12-18T11:09:21;102155.63;;;11.37;59.80
30875;BME280;17581;43.222;27.924;2022-12-18T11:11:51;102165.00;;;11.45;59.76
30875;BME280;17581;43.222;27.924;2022-12-18T11:14:51;102178.53;;;11.44;59.24
30875;BME280;17581;43.222;27.924;2022-12-18T11:17:35;102150.44;;;11.34;59.56
30875;BME280;17581;43.222;27.924;2022-12-18T11:20:04;102178.16;;;11.50;59.34
30875;BME280;17581;43.222;27.924;2022-12-18T11:22:33;102176.50;;;11.33;60.01
30875;BME280;17581;43.222;27.924;2022-12-18T11:27:31;102176.63;;;11.16;60.55
30875;BME280;17581;43.222;27.924;2022-12-18T11:30:09;102185.91;;;11.26;60.83
30875;BME280;17581;43.222;27.924;2022-12-18T11:32:43;102177.41;;;11.18;60.79
30875;BME280;17581;43.222;27.924;2022-12-18T11:38:06;102096.03;;;10.83;60.88
30875;BME280;17581;43.222;27.924;2022-12-18T11:40:37;102166.69;;;11.32;60.72
30875;BME280;17581;43.222;27.924;2022-12-18T11:45:59;102184.66;;;11.32;60.36
30875;BME280;17581;43.222;27.924;2022-12-18T11:48:30;102188.56;;;11.42;61.11
30875;BME280;17581;43.222;27.924;2022-12-18T11:51:00;102170.81;;;11.38;60.34
30875;BME280;17581;43.222;27.924;2022-12-18T11:53:27;102164.94;;;11.31;60.66
30875;BME280;17581;43.222;27.924;2022-12-18T12:01:38;102161.59;;;11.28;61.15
30875;BME280;17581;43.222;27.924;2022-12-18T12:06:43;102185.81;;;11.28;61.48
30875;BME280;17581;43.222;27.924;2022-12-18T12:09:25;102179.63;;;11.26;60.80
30875;BME280;17581;43.222;27.924;2022-12-18T12:18:19;102192.38;;;11.38;60.62
30875;BME280;17581;43.222;27.924;2022-12-18T12:26:45;102224.44;;;11.42;60.21
30875;BME280;17581;43.222;27.924;2022-12-18T12:39:42;102237.91;;;11.42;60.21
30875;BME280;17581;43.222;27.924;2022-12-18T12:42:26;102226.72;;;11.34;60.20
30875;BME280;17581;43.222;27.924;2022-12-18T12:51:19;102229.88;;;11.11;59.12
30875;BME280;17581;43.222;27.924;2022-12-18T12:53:46;102261.91;;;11.31;58.38
30875;BME280;17581;43.222;27.924;2022-12-18T12:56:15;102267.34;;;11.00;56.84
30875;BME280;17581;43.222;27.924;2022-12-18T12:58:48;102275.31;;;11.02;56.24
30875;BME280;17581;43.222;27.924;2022-12-18T13:01:32;102258.03;;;10.74;56.37
30875;BME280;17581;43.222;27.924;2022-12-18T13:04:27;102273.84;;;10.65;57.10
30875;BME280;17581;43.222;27.924;2022-12-18T13:07:06;102269.84;;;10.56;57.11
30875;BME280;17581;43.222;27.924;2022-12-18T13:13:04;102290.06;;;10.15;58.43
30875;BME280;17581;43.222;27.924;2022-12-18T13:15:33;102238.81;;;9.66;56.58
30875;BME280;17581;43.222;27.924;2022-12-18T13:20:34;102284.25;;;9.71;55.37
30875;BME280;17581;43.222;27.924;2022-12-18T13:26:28;102279.72;;;9.37;55.37
30875;BME280;17581;43.222;27.924;2022-12-18T13:36:44;102301.81;;;9.25;56.27
30875;BME280;17581;43.222;27.924;2022-12-18T13:39:31;102308.50;;;9.35;56.64
30875;BME280;17581;43.222;27.924;2022-12-18T13:44:37;102310.66;;;9.27;56.29
30875;BME280;17581;43.222;27.924;2022-12-18T13:47:25;102270.66;;;9.04;55.96
30875;BME280;17581;43.222;27.924;2022-12-18T13:49:53;102326.91;;;9.24;55.97
30875;BME280;17581;43.222;27.924;2022-12-18T13:52:26;102314.91;;;9.14;55.77
30875;BME280;17581;43.222;27.924;2022-12-18T13:54:56;102331.25;;;9.26;55.79
30875;BME280;17581;43.222;27.924;2022-12-18T13:57:32;102341.75;;;9.14;56.61
30875;BME280;17581;43.222;27.924;2022-12-18T14:00:23;102348.25;;;9.27;55.84
30875;BME280;17581;43.222;27.924;2022-12-18T14:02:49;102352.69;;;9.28;56.78
30875;BME280;17581;43.222;27.924;2022-12-18T14:07:52;102358.91;;;9.47;56.13
30875;BME280;17581;43.222;27.924;2022-12-18T14:10:18;102365.09;;;9.66;55.63
30875;BME280;17581;43.222;27.924;2022-12-18T14:12:47;102365.59;;;9.74;54.92
30875;BME280;17581;43.222;27.924;2022-12-18T14:18:02;102375.31;;;9.94;55.07
30875;BME280;17581;43.222;27.924;2022-12-18T14:20:31;102371.94;;;9.91;54.93
30875;BME280;17581;43.222;27.924;2022-12-18T14:22:58;102378.97;;;9.93;55.02
30875;BME280;17581;43.222;27.924;2022-12-18T14:25:30;102374.94;;;9.84;55.79
30875;BME280;17581;43.222;27.924;2022-12-18T14:30:35;102383.31;;;9.96;56.30
30875;BME280;17581;43.222;27.924;2022-12-18T14:35:31;102370.81;;;9.77;56.97
30875;BME280;17581;43.222;27.924;2022-12-18T14:38:20;102337.31;;;9.49;57.38
30875;BME280;17581;43.222;27.924;2022-12-18T14:40:46;102406.31;;;10.01;57.22
30875;BME280;17581;43.222;27.924;2022-12-18T14:43:12;102419.22;;;10.12;57.51
30875;BME280;17581;43.222;27.924;2022-12-18T14:45:42;102415.88;;;10.07;57.38
30875;BME280;17581;43.222;27.924;2022-12-18T14:48:17;102419.22;;;10.12;57.33
30875;BME280;17581;43.222;27.924;2022-12-18T14:50:43;102399.75;;;10.07;57.40
30875;BME280;17581;43.222;27.924;2022-12-18T14:53:31;102401.34;;;10.11;57.85
30875;BME280;17581;43.222;27.924;2022-12-18T14:55:57;102417.16;;;10.00;57.92
30875;BME280;17581;43.222;27.924;2022-12-18T14:58:23;102425.22;;;10.00;57.45
30875;BME280;17581;43.222;27.924;2022-12-18T15:00:48;102449.31;;;9.84;56.77
30875;BME280;17581;43.222;27.924;2022-12-18T15:03:18;102447.63;;;9.81;54.95
30875;BME280;17581;43.222;27.924;2022-12-18T15:05:45;102441.63;;;9.76;55.77